Winnipeg International

Airport
ICAO code: 
CYWG
Summary
ICAO Region: 
NAM
Territory: 
Location: 
Winnipeg, Manitoba,
Coordinates: 
Aerial View: 
49° 54' 35.999" N, 97° 14' 23.635" W
Metar
Observation
CYWG 272100Z 31017G23KT 15SM SKC 01/M06 A2997 RMK SLP166
Station
Winnipeg Int. Airportman.
Date/Time
2021-11-27 21:00:00
Wind direction
310°
Wind speed
17 kts
Lowest cloud amount
n/a
Temperature
1°C
Dew point
-6°C
Humidity
59%
Weather condition
n/a

Description

International airport serving Winnipeg, Manitoba.

Climatology

Humid Continental climate (Köppen climate classification Dfb) - Variable weather patterns and a large seasonal temperature variance. Summers are often warm and humid with frequent thunderstorms and winters can be very cold with frequent snowfall and persistent snow cover.

Runways

Designator Length Width Surface Rops
7/25 1372 61 ASP Yes/Yes
13/31 2652 61 ASP Yes/Yes
18/36 3353 61 ASP Yes/Yes
Airport map: 
Aerial View: 

Accidents and Serious Incidents at or in the vicinity of CYWG

SKYbrary Partners:

Safety knowledge contributed by: